sensor_id;sensor_type;location;lat;lon;timestamp;P1;durP1;ratioP1;P2;durP2;ratioP2
76475;SDS011;65308;50.078;14.854;2023-04-28T00:00:05;22.23;;;12.60;;
76475;SDS011;65308;50.078;14.854;2023-04-28T00:02:33;18.27;;;10.75;;
76475;SDS011;65308;50.078;14.854;2023-04-28T00:05:00;19.33;;;11.13;;
76475;SDS011;65308;50.078;14.854;2023-04-28T00:07:28;18.20;;;10.77;;
76475;SDS011;65308;50.078;14.854;2023-04-28T00:09:55;22.80;;;11.85;;
76475;SDS011;65308;50.078;14.854;2023-04-28T00:12:21;21.77;;;11.40;;
76475;SDS011;65308;50.078;14.854;2023-04-28T00:14:48;21.17;;;10.93;;
76475;SDS011;65308;50.078;14.854;2023-04-28T00:17:15;20.17;;;10.90;;
76475;SDS011;65308;50.078;14.854;2023-04-28T00:19:41;18.77;;;10.65;;
76475;SDS011;65308;50.078;14.854;2023-04-28T00:22:09;20.67;;;11.63;;
76475;SDS011;65308;50.078;14.854;2023-04-28T00:24:37;20.60;;;10.77;;
76475;SDS011;65308;50.078;14.854;2023-04-28T00:27:03;24.48;;;11.25;;
76475;SDS011;65308;50.078;14.854;2023-04-28T00:29:30;20.60;;;11.88;;
76475;SDS011;65308;50.078;14.854;2023-04-28T00:31:57;20.30;;;11.32;;
76475;SDS011;65308;50.078;14.854;2023-04-28T00:34:23;19.95;;;11.63;;
76475;SDS011;65308;50.078;14.854;2023-04-28T00:36:50;21.45;;;11.45;;
76475;SDS011;65308;50.078;14.854;2023-04-28T00:39:17;22.83;;;11.88;;
76475;SDS011;65308;50.078;14.854;2023-04-28T00:41:45;23.33;;;11.95;;
76475;SDS011;65308;50.078;14.854;2023-04-28T00:44:11;20.63;;;11.35;;
76475;SDS011;65308;50.078;14.854;2023-04-28T00:46:39;19.38;;;10.55;;
76475;SDS011;65308;50.078;14.854;2023-04-28T00:49:08;20.45;;;11.00;;
76475;SDS011;65308;50.078;14.854;2023-04-28T00:51:35;24.83;;;12.13;;
76475;SDS011;65308;50.078;14.854;2023-04-28T00:54:02;19.67;;;11.15;;
76475;SDS011;65308;50.078;14.854;2023-04-28T00:56:31;19.02;;;10.60;;
76475;SDS011;65308;50.078;14.854;2023-04-28T00:58:59;20.65;;;11.73;;
76475;SDS011;65308;50.078;14.854;2023-04-28T01:01:25;21.08;;;11.00;;
76475;SDS011;65308;50.078;14.854;2023-04-28T01:03:52;20.38;;;11.25;;
76475;SDS011;65308;50.078;14.854;2023-04-28T01:06:19;20.92;;;12.13;;
76475;SDS011;65308;50.078;14.854;2023-04-28T01:08:47;21.38;;;12.60;;
76475;SDS011;65308;50.078;14.854;2023-04-28T01:11:14;22.33;;;12.48;;
76475;SDS011;65308;50.078;14.854;2023-04-28T01:13:41;19.83;;;11.77;;
76475;SDS011;65308;50.078;14.854;2023-04-28T01:16:09;23.80;;;13.10;;
76475;SDS011;65308;50.078;14.854;2023-04-28T01:18:36;19.00;;;11.90;;
76475;SDS011;65308;50.078;14.854;2023-04-28T01:21:03;20.80;;;12.20;;
76475;SDS011;65308;50.078;14.854;2023-04-28T01:23:31;22.75;;;12.63;;
76475;SDS011;65308;50.078;14.854;2023-04-28T01:25:59;21.15;;;12.13;;
76475;SDS011;65308;50.078;14.854;2023-04-28T01:28:25;22.00;;;11.80;;
76475;SDS011;65308;50.078;14.854;2023-04-28T01:30:52;21.42;;;11.38;;
76475;SDS011;65308;50.078;14.854;2023-04-28T01:33:19;20.73;;;11.95;;
76475;SDS011;65308;50.078;14.854;2023-04-28T01:35:46;24.63;;;11.85;;
76475;SDS011;65308;50.078;14.854;2023-04-28T01:38:12;18.80;;;10.40;;
76475;SDS011;65308;50.078;14.854;2023-04-28T01:40:39;23.33;;;11.88;;
76475;SDS011;65308;50.078;14.854;2023-04-28T01:43:07;21.23;;;12.20;;
76475;SDS011;65308;50.078;14.854;2023-04-28T01:45:34;20.30;;;11.70;;
76475;SDS011;65308;50.078;14.854;2023-04-28T01:48:01;17.98;;;10.65;;
76475;SDS011;65308;50.078;14.854;2023-04-28T01:50:27;18.88;;;11.30;;
76475;SDS011;65308;50.078;14.854;2023-04-28T01:52:54;19.33;;;11.13;;
76475;SDS011;65308;50.078;14.854;2023-04-28T01:55:21;19.63;;;11.40;;
76475;SDS011;65308;50.078;14.854;2023-04-28T01:57:47;20.60;;;12.32;;
76475;SDS011;65308;50.078;14.854;2023-04-28T02:00:16;19.08;;;11.15;;
76475;SDS011;65308;50.078;14.854;2023-04-28T02:02:43;17.95;;;10.13;;
76475;SDS011;65308;50.078;14.854;2023-04-28T02:05:09;20.00;;;10.68;;
76475;SDS011;65308;50.078;14.854;2023-04-28T02:07:36;16.60;;;10.43;;
76475;SDS011;65308;50.078;14.854;2023-04-28T02:10:03;19.48;;;11.75;;
76475;SDS011;65308;50.078;14.854;2023-04-28T02:12:30;21.00;;;11.27;;
76475;SDS011;65308;50.078;14.854;2023-04-28T02:14:57;19.70;;;10.38;;
76475;SDS011;65308;50.078;14.854;2023-04-28T02:17:27;16.42;;;10.40;;
76475;SDS011;65308;50.078;14.854;2023-04-28T02:19:55;22.83;;;11.25;;
76475;SDS011;65308;50.078;14.854;2023-04-28T02:22:22;18.48;;;11.13;;
76475;SDS011;65308;50.078;14.854;2023-04-28T02:24:49;17.92;;;10.65;;
76475;SDS011;65308;50.078;14.854;2023-04-28T02:27:16;15.90;;;10.63;;
76475;SDS011;65308;50.078;14.854;2023-04-28T02:29:42;18.88;;;10.70;;
76475;SDS011;65308;50.078;14.854;2023-04-28T02:32:09;18.70;;;10.77;;
76475;SDS011;65308;50.078;14.854;2023-04-28T02:34:37;19.27;;;10.55;;
76475;SDS011;65308;50.078;14.854;2023-04-28T02:37:04;17.75;;;11.10;;
76475;SDS011;65308;50.078;14.854;2023-04-28T02:39:31;19.48;;;10.88;;
76475;SDS011;65308;50.078;14.854;2023-04-28T02:41:57;17.27;;;10.75;;
76475;SDS011;65308;50.078;14.854;2023-04-28T02:44:24;19.15;;;11.00;;
76475;SDS011;65308;50.078;14.854;2023-04-28T02:46:51;22.08;;;12.38;;
76475;SDS011;65308;50.078;14.854;2023-04-28T02:49:17;19.45;;;10.70;;
76475;SDS011;65308;50.078;14.854;2023-04-28T02:51:45;18.25;;;10.20;;
76475;SDS011;65308;50.078;14.854;2023-04-28T02:54:12;23.02;;;11.43;;
76475;SDS011;65308;50.078;14.854;2023-04-28T02:56:38;17.27;;;10.38;;
76475;SDS011;65308;50.078;14.854;2023-04-28T02:59:06;20.88;;;11.50;;
76475;SDS011;65308;50.078;14.854;2023-04-28T03:01:33;20.10;;;11.15;;
76475;SDS011;65308;50.078;14.854;2023-04-28T03:03:59;19.60;;;10.25;;
76475;SDS011;65308;50.078;14.854;2023-04-28T03:06:26;16.23;;;10.60;;
76475;SDS011;65308;50.078;14.854;2023-04-28T03:08:54;18.33;;;10.73;;
76475;SDS011;65308;50.078;14.854;2023-04-28T03:11:21;18.20;;;10.75;;
76475;SDS011;65308;50.078;14.854;2023-04-28T03:13:47;19.25;;;11.05;;
76475;SDS011;65308;50.078;14.854;2023-04-28T03:16:14;19.83;;;11.18;;
76475;SDS011;65308;50.078;14.854;2023-04-28T03:18:40;19.75;;;11.07;;
76475;SDS011;65308;50.078;14.854;2023-04-28T03:21:07;21.83;;;11.05;;
76475;SDS011;65308;50.078;14.854;2023-04-28T03:23:34;19.55;;;11.93;;
76475;SDS011;65308;50.078;14.854;2023-04-28T03:26:02;20.85;;;11.07;;
76475;SDS011;65308;50.078;14.854;2023-04-28T03:28:29;20.38;;;11.23;;
76475;SDS011;65308;50.078;14.854;2023-04-28T03:30:56;20.85;;;10.93;;
76475;SDS011;65308;50.078;14.854;2023-04-28T03:33:22;17.73;;;10.38;;
76475;SDS011;65308;50.078;14.854;2023-04-28T03:35:49;19.77;;;11.13;;
76475;SDS011;65308;50.078;14.854;2023-04-28T03:38:17;18.35;;;10.35;;
76475;SDS011;65308;50.078;14.854;2023-04-28T03:40:44;16.02;;;10.35;;
76475;SDS011;65308;50.078;14.854;2023-04-28T03:43:12;18.83;;;10.70;;
76475;SDS011;65308;50.078;14.854;2023-04-28T03:45:39;15.48;;;9.90;;
76475;SDS011;65308;50.078;14.854;2023-04-28T03:48:06;15.70;;;10.05;;
76475;SDS011;65308;50.078;14.854;2023-04-28T03:50:32;16.65;;;10.13;;
76475;SDS011;65308;50.078;14.854;2023-04-28T03:52:59;16.20;;;10.65;;
76475;SDS011;65308;50.078;14.854;2023-04-28T03:55:26;16.98;;;10.13;;
76475;SDS011;65308;50.078;14.854;2023-04-28T03:57:53;15.60;;;10.57;;
76475;SDS011;65308;50.078;14.854;2023-04-28T04:02:52;18.67;;;10.20;;
76475;SDS011;65308;50.078;14.854;2023-04-28T04:05:18;16.63;;;10.45;;
76475;SDS011;65308;50.078;14.854;2023-04-28T04:07:45;19.45;;;10.45;;
76475;SDS011;65308;50.078;14.854;2023-04-28T04:10:12;18.67;;;10.48;;
76475;SDS011;65308;50.078;14.854;2023-04-28T04:12:38;16.42;;;10.57;;
76475;SDS011;65308;50.078;14.854;2023-04-28T04:15:06;16.83;;;10.02;;
76475;SDS011;65308;50.078;14.854;2023-04-28T04:17:33;15.38;;;10.07;;
76475;SDS011;65308;50.078;14.854;2023-04-28T04:20:02;18.42;;;10.63;;
76475;SDS011;65308;50.078;14.854;2023-04-28T04:22:33;16.75;;;10.80;;
76475;SDS011;65308;50.078;14.854;2023-04-28T04:24:59;18.05;;;10.70;;
76475;SDS011;65308;50.078;14.854;2023-04-28T04:27:26;22.90;;;11.60;;
76475;SDS011;65308;50.078;14.854;2023-04-28T04:29:53;26.98;;;13.50;;
76475;SDS011;65308;50.078;14.854;2023-04-28T04:32:20;41.63;;;20.13;;
76475;SDS011;65308;50.078;14.854;2023-04-28T04:34:47;34.03;;;16.35;;
76475;SDS011;65308;50.078;14.854;2023-04-28T04:37:16;25.55;;;14.38;;
76475;SDS011;65308;50.078;14.854;2023-04-28T04:39:43;33.25;;;14.27;;
76475;SDS011;65308;50.078;14.854;2023-04-28T04:42:10;19.23;;;11.65;;
76475;SDS011;65308;50.078;14.854;2023-04-28T04:44:37;24.02;;;12.63;;
76475;SDS011;65308;50.078;14.854;2023-04-28T04:47:11;46.33;;;20.20;;
76475;SDS011;65308;50.078;14.854;2023-04-28T04:49:38;28.38;;;14.52;;
76475;SDS011;65308;50.078;14.854;2023-04-28T04:52:04;34.83;;;15.40;;
76475;SDS011;65308;50.078;14.854;2023-04-28T04:54:36;29.92;;;15.10;;
76475;SDS011;65308;50.078;14.854;2023-04-28T04:57:03;24.75;;;13.68;;
76475;SDS011;65308;50.078;14.854;2023-04-28T04:59:31;19.10;;;11.93;;
76475;SDS011;65308;50.078;14.854;2023-04-28T05:01:57;17.65;;;10.30;;
76475;SDS011;65308;50.078;14.854;2023-04-28T05:04:24;15.75;;;10.02;;
76475;SDS011;65308;50.078;14.854;2023-04-28T05:06:51;17.95;;;11.00;;
76475;SDS011;65308;50.078;14.854;2023-04-28T05:09:17;17.27;;;10.18;;
76475;SDS011;65308;50.078;14.854;2023-04-28T05:11:45;17.92;;;10.73;;
76475;SDS011;65308;50.078;14.854;2023-04-28T05:14:13;15.73;;;10.82;;
76475;SDS011;65308;50.078;14.854;2023-04-28T05:16:40;14.57;;;9.88;;
76475;SDS011;65308;50.078;14.854;2023-04-28T05:19:07;16.45;;;10.68;;
76475;SDS011;65308;50.078;14.854;2023-04-28T05:21:34;17.30;;;10.32;;
76475;SDS011;65308;50.078;14.854;2023-04-28T05:24:00;15.65;;;10.50;;
76475;SDS011;65308;50.078;14.854;2023-04-28T05:26:27;17.15;;;10.77;;
76475;SDS011;65308;50.078;14.854;2023-04-28T05:28:55;14.43;;;10.07;;
76475;SDS011;65308;50.078;14.854;2023-04-28T05:31:22;15.75;;;10.38;;
76475;SDS011;65308;50.078;14.854;2023-04-28T05:33:48;14.77;;;10.02;;
76475;SDS011;65308;50.078;14.854;2023-04-28T05:36:15;14.68;;;10.18;;
76475;SDS011;65308;50.078;14.854;2023-04-28T05:38:42;15.40;;;10.07;;
76475;SDS011;65308;50.078;14.854;2023-04-28T05:41:09;12.43;;;9.27;;
76475;SDS011;65308;50.078;14.854;2023-04-28T05:43:36;15.15;;;9.13;;
76475;SDS011;65308;50.078;14.854;2023-04-28T05:46:04;15.52;;;9.93;;
76475;SDS011;65308;50.078;14.854;2023-04-28T05:48:31;14.88;;;10.73;;
76475;SDS011;65308;50.078;14.854;2023-04-28T05:50:57;14.25;;;9.65;;
76475;SDS011;65308;50.078;14.854;2023-04-28T05:53:24;13.98;;;9.85;;
76475;SDS011;65308;50.078;14.854;2023-04-28T05:55:51;13.45;;;9.90;;
76475;SDS011;65308;50.078;14.854;2023-04-28T05:58:18;15.35;;;10.07;;
76475;SDS011;65308;50.078;14.854;2023-04-28T06:00:46;16.15;;;10.52;;
76475;SDS011;65308;50.078;14.854;2023-04-28T06:03:14;14.98;;;11.27;;
76475;SDS011;65308;50.078;14.854;2023-04-28T06:05:43;14.77;;;10.88;;
76475;SDS011;65308;50.078;14.854;2023-04-28T06:08:09;19.38;;;14.40;;
76475;SDS011;65308;50.078;14.854;2023-04-28T06:10:36;14.25;;;10.45;;
76475;SDS011;65308;50.078;14.854;2023-04-28T06:13:04;18.15;;;14.82;;
76475;SDS011;65308;50.078;14.854;2023-04-28T06:15:31;32.40;;;19.67;;
76475;SDS011;65308;50.078;14.854;2023-04-28T06:18:01;14.68;;;10.85;;
76475;SDS011;65308;50.078;14.854;2023-04-28T06:20:31;14.60;;;10.05;;
76475;SDS011;65308;50.078;14.854;2023-04-28T06:22:58;15.82;;;11.00;;
76475;SDS011;65308;50.078;14.854;2023-04-28T06:25:29;12.00;;;10.02;;
76475;SDS011;65308;50.078;14.854;2023-04-28T06:27:56;13.23;;;9.95;;
76475;SDS011;65308;50.078;14.854;2023-04-28T06:30:23;13.30;;;10.35;;
76475;SDS011;65308;50.078;14.854;2023-04-28T06:32:50;11.52;;;9.55;;
76475;SDS011;65308;50.078;14.854;2023-04-28T06:38:08;14.50;;;10.52;;
76475;SDS011;65308;50.078;14.854;2023-04-28T06:40:35;13.20;;;9.60;;
76475;SDS011;65308;50.078;14.854;2023-04-28T06:43:03;12.32;;;9.95;;
76475;SDS011;65308;50.078;14.854;2023-04-28T06:45:30;15.88;;;11.68;;
76475;SDS011;65308;50.078;14.854;2023-04-28T06:48:03;11.82;;;9.68;;
76475;SDS011;65308;50.078;14.854;2023-04-28T06:50:31;12.02;;;9.95;;
76475;SDS011;65308;50.078;14.854;2023-04-28T06:53:01;12.18;;;10.43;;
76475;SDS011;65308;50.078;14.854;2023-04-28T06:55:33;11.55;;;9.85;;
76475;SDS011;65308;50.078;14.854;2023-04-28T06:58:00;11.60;;;9.63;;
76475;SDS011;65308;50.078;14.854;2023-04-28T07:00:33;11.65;;;9.73;;
76475;SDS011;65308;50.078;14.854;2023-04-28T07:03:02;11.68;;;10.10;;
76475;SDS011;65308;50.078;14.854;2023-04-28T07:05:29;12.05;;;10.75;;
76475;SDS011;65308;50.078;14.854;2023-04-28T07:08:12;12.82;;;10.25;;
76475;SDS011;65308;50.078;14.854;2023-04-28T07:10:40;12.60;;;9.88;;
76475;SDS011;65308;50.078;14.854;2023-04-28T07:13:07;16.48;;;10.35;;
76475;SDS011;65308;50.078;14.854;2023-04-28T07:15:37;12.85;;;9.75;;
76475;SDS011;65308;50.078;14.854;2023-04-28T07:18:03;13.27;;;9.98;;
76475;SDS011;65308;50.078;14.854;2023-04-28T07:20:34;11.20;;;9.80;;
76475;SDS011;65308;50.078;14.854;2023-04-28T07:23:04;11.65;;;9.45;;
76475;SDS011;65308;50.078;14.854;2023-04-28T07:25:30;10.27;;;8.73;;
76475;SDS011;65308;50.078;14.854;2023-04-28T07:30:32;10.48;;;8.38;;
76475;SDS011;65308;50.078;14.854;2023-04-28T07:33:06;10.77;;;8.82;;
76475;SDS011;65308;50.078;14.854;2023-04-28T07:35:38;11.88;;;7.70;;
76475;SDS011;65308;50.078;14.854;2023-04-28T07:38:09;12.38;;;8.07;;
76475;SDS011;65308;50.078;14.854;2023-04-28T07:40:38;8.82;;;6.50;;
76475;SDS011;65308;50.078;14.854;2023-04-28T07:45:50;7.75;;;6.47;;
76475;SDS011;65308;50.078;14.854;2023-04-28T07:48:17;8.75;;;6.05;;
76475;SDS011;65308;50.078;14.854;2023-04-28T07:50:44;9.13;;;6.95;;
76475;SDS011;65308;50.078;14.854;2023-04-28T07:53:12;10.18;;;7.10;;
76475;SDS011;65308;50.078;14.854;2023-04-28T07:55:45;10.90;;;7.60;;
76475;SDS011;65308;50.078;14.854;2023-04-28T07:58:13;11.23;;;7.35;;
76475;SDS011;65308;50.078;14.854;2023-04-28T08:00:41;9.57;;;6.97;;
76475;SDS011;65308;50.078;14.854;2023-04-28T08:03:16;11.75;;;7.55;;
76475;SDS011;65308;50.078;14.854;2023-04-28T08:05:44;11.07;;;7.30;;
76475;SDS011;65308;50.078;14.854;2023-04-28T08:08:25;9.15;;;7.05;;
76475;SDS011;65308;50.078;14.854;2023-04-28T08:10:58;10.30;;;6.45;;
76475;SDS011;65308;50.078;14.854;2023-04-28T08:13:27;9.05;;;6.97;;
76475;SDS011;65308;50.078;14.854;2023-04-28T08:16:05;8.23;;;6.55;;
76475;SDS011;65308;50.078;14.854;2023-04-28T08:18:46;8.77;;;6.68;;
76475;SDS011;65308;50.078;14.854;2023-04-28T08:21:13;8.02;;;6.97;;
76475;SDS011;65308;50.078;14.854;2023-04-28T08:26:06;8.10;;;5.55;;
76475;SDS011;65308;50.078;14.854;2023-04-28T08:28:33;6.43;;;4.90;;
76475;SDS011;65308;50.078;14.854;2023-04-28T08:31:00;7.68;;;6.25;;
76475;SDS011;65308;50.078;14.854;2023-04-28T08:36:05;7.00;;;5.53;;
76475;SDS011;65308;50.078;14.854;2023-04-28T08:38:34;9.25;;;5.70;;
76475;SDS011;65308;50.078;14.854;2023-04-28T08:41:19;7.32;;;4.97;;
76475;SDS011;65308;50.078;14.854;2023-04-28T08:43:55;7.30;;;4.90;;
76475;SDS011;65308;50.078;14.854;2023-04-28T08:46:24;8.02;;;5.38;;
76475;SDS011;65308;50.078;14.854;2023-04-28T08:48:53;8.52;;;4.90;;
76475;SDS011;65308;50.078;14.854;2023-04-28T08:51:26;7.53;;;4.60;;
76475;SDS011;65308;50.078;14.854;2023-04-28T08:54:01;7.50;;;5.25;;
76475;SDS011;65308;50.078;14.854;2023-04-28T08:56:31;8.48;;;5.57;;
76475;SDS011;65308;50.078;14.854;2023-04-28T08:59:00;6.15;;;4.57;;
76475;SDS011;65308;50.078;14.854;2023-04-28T09:01:29;6.88;;;4.10;;
76475;SDS011;65308;50.078;14.854;2023-04-28T09:03:56;6.35;;;3.80;;
76475;SDS011;65308;50.078;14.854;2023-04-28T09:06:38;8.88;;;3.80;;
76475;SDS011;65308;50.078;14.854;2023-04-28T09:09:17;6.63;;;3.88;;
76475;SDS011;65308;50.078;14.854;2023-04-28T09:11:52;7.72;;;3.95;;
76475;SDS011;65308;50.078;14.854;2023-04-28T09:14:20;7.28;;;4.65;;
76475;SDS011;65308;50.078;14.854;2023-04-28T09:16:48;6.25;;;3.80;;
76475;SDS011;65308;50.078;14.854;2023-04-28T09:19:15;6.05;;;4.88;;
76475;SDS011;65308;50.078;14.854;2023-04-28T09:21:48;6.10;;;3.85;;
76475;SDS011;65308;50.078;14.854;2023-04-28T09:24:25;5.95;;;3.80;;
76475;SDS011;65308;50.078;14.854;2023-04-28T09:26:56;6.20;;;3.50;;
76475;SDS011;65308;50.078;14.854;2023-04-28T09:29:28;8.82;;;4.22;;
76475;SDS011;65308;50.078;14.854;2023-04-28T09:32:11;4.93;;;4.07;;
76475;SDS011;65308;50.078;14.854;2023-04-28T09:34:42;5.47;;;4.05;;
76475;SDS011;65308;50.078;14.854;2023-04-28T09:37:16;8.15;;;4.90;;
76475;SDS011;65308;50.078;14.854;2023-04-28T09:39:44;4.82;;;3.45;;
76475;SDS011;65308;50.078;14.854;2023-04-28T09:42:18;6.47;;;4.00;;
76475;SDS011;65308;50.078;14.854;2023-04-28T09:44:57;5.00;;;3.30;;
76475;SDS011;65308;50.078;14.854;2023-04-28T09:47:35;6.03;;;3.47;;
76475;SDS011;65308;50.078;14.854;2023-04-28T09:50:10;7.88;;;3.70;;
76475;SDS011;65308;50.078;14.854;2023-04-28T09:52:41;5.72;;;3.53;;
76475;SDS011;65308;50.078;14.854;2023-04-28T09:55:09;5.28;;;3.38;;
76475;SDS011;65308;50.078;14.854;2023-04-28T09:57:37;4.93;;;3.40;;
76475;SDS011;65308;50.078;14.854;2023-04-28T10:00:05;8.15;;;5.05;;
76475;SDS011;65308;50.078;14.854;2023-04-28T10:02:33;12.75;;;7.65;;
76475;SDS011;65308;50.078;14.854;2023-04-28T10:05:01;8.57;;;6.68;;
76475;SDS011;65308;50.078;14.854;2023-04-28T10:12:35;7.38;;;4.75;;
76475;SDS011;65308;50.078;14.854;2023-04-28T10:15:02;8.13;;;3.53;;
76475;SDS011;65308;50.078;14.854;2023-04-28T10:17:30;5.68;;;3.70;;
76475;SDS011;65308;50.078;14.854;2023-04-28T10:19:59;6.65;;;3.92;;
76475;SDS011;65308;50.078;14.854;2023-04-28T10:22:41;8.02;;;5.13;;
76475;SDS011;65308;50.078;14.854;2023-04-28T10:25:32;5.85;;;3.65;;
76475;SDS011;65308;50.078;14.854;2023-04-28T10:28:06;6.28;;;3.70;;
76475;SDS011;65308;50.078;14.854;2023-04-28T10:30:36;5.10;;;3.22;;
76475;SDS011;65308;50.078;14.854;2023-04-28T10:33:21;6.80;;;3.42;;
76475;SDS011;65308;50.078;14.854;2023-04-28T10:35:50;6.57;;;3.63;;
76475;SDS011;65308;50.078;14.854;2023-04-28T10:38:17;8.23;;;5.05;;
76475;SDS011;65308;50.078;14.854;2023-04-28T10:40:50;5.07;;;3.15;;
76475;SDS011;65308;50.078;14.854;2023-04-28T10:43:36;7.00;;;3.60;;
76475;SDS011;65308;50.078;14.854;2023-04-28T10:46:04;13.52;;;8.45;;
76475;SDS011;65308;50.078;14.854;2023-04-28T10:48:51;10.27;;;5.85;;
76475;SDS011;65308;50.078;14.854;2023-04-28T10:51:20;7.72;;;4.50;;
76475;SDS011;65308;50.078;14.854;2023-04-28T10:59:49;5.93;;;3.20;;
76475;SDS011;65308;50.078;14.854;2023-04-28T11:02:35;4.63;;;3.13;;
76475;SDS011;65308;50.078;14.854;2023-04-28T11:05:09;5.00;;;2.97;;
76475;SDS011;65308;50.078;14.854;2023-04-28T11:07:37;4.72;;;2.80;;
76475;SDS011;65308;50.078;14.854;2023-04-28T11:10:04;6.03;;;3.35;;
76475;SDS011;65308;50.078;14.854;2023-04-28T11:12:32;5.07;;;3.00;;
76475;SDS011;65308;50.078;14.854;2023-04-28T11:15:09;7.15;;;3.20;;
76475;SDS011;65308;50.078;14.854;2023-04-28T11:17:38;6.07;;;3.15;;
76475;SDS011;65308;50.078;14.854;2023-04-28T11:20:06;5.47;;;3.30;;
76475;SDS011;65308;50.078;14.854;2023-04-28T11:22:38;5.53;;;3.20;;
76475;SDS011;65308;50.078;14.854;2023-04-28T11:25:06;4.82;;;3.00;;
76475;SDS011;65308;50.078;14.854;2023-04-28T11:27:34;5.35;;;3.17;;
76475;SDS011;65308;50.078;14.854;2023-04-28T11:30:01;6.07;;;3.10;;
76475;SDS011;65308;50.078;14.854;2023-04-28T11:35:20;5.47;;;3.55;;
76475;SDS011;65308;50.078;14.854;2023-04-28T11:38:00;5.57;;;3.40;;
76475;SDS011;65308;50.078;14.854;2023-04-28T11:40:28;6.70;;;3.45;;
76475;SDS011;65308;50.078;14.854;2023-04-28T11:42:57;6.38;;;3.42;;
76475;SDS011;65308;50.078;14.854;2023-04-28T11:45:25;7.32;;;3.10;;
76475;SDS011;65308;50.078;14.854;2023-04-28T11:53:04;5.38;;;3.17;;
76475;SDS011;65308;50.078;14.854;2023-04-28T11:55:31;6.38;;;3.38;;
76475;SDS011;65308;50.078;14.854;2023-04-28T12:03:46;4.85;;;3.00;;
76475;SDS011;65308;50.078;14.854;2023-04-28T12:06:17;5.45;;;3.30;;
76475;SDS011;65308;50.078;14.854;2023-04-28T12:08:44;6.25;;;3.33;;
76475;SDS011;65308;50.078;14.854;2023-04-28T12:11:11;6.35;;;3.35;;
76475;SDS011;65308;50.078;14.854;2023-04-28T12:13:39;7.13;;;3.80;;
76475;SDS011;65308;50.078;14.854;2023-04-28T12:16:11;5.70;;;3.35;;
76475;SDS011;65308;50.078;14.854;2023-04-28T12:18:44;6.43;;;3.33;;
76475;SDS011;65308;50.078;14.854;2023-04-28T12:21:25;5.72;;;3.30;;
76475;SDS011;65308;50.078;14.854;2023-04-28T12:23:52;5.15;;;3.22;;
76475;SDS011;65308;50.078;14.854;2023-04-28T12:26:25;7.38;;;3.50;;
76475;SDS011;65308;50.078;14.854;2023-04-28T12:28:52;9.52;;;5.63;;
76475;SDS011;65308;50.078;14.854;2023-04-28T12:31:19;5.95;;;3.83;;
76475;SDS011;65308;50.078;14.854;2023-04-28T12:33:45;6.32;;;3.88;;
76475;SDS011;65308;50.078;14.854;2023-04-28T12:36:13;4.78;;;3.28;;
76475;SDS011;65308;50.078;14.854;2023-04-28T12:41:19;6.93;;;3.55;;
76475;SDS011;65308;50.078;14.854;2023-04-28T12:43:45;7.18;;;3.28;;
76475;SDS011;65308;50.078;14.854;2023-04-28T12:46:12;5.68;;;3.30;;
76475;SDS011;65308;50.078;14.854;2023-04-28T12:48:39;5.38;;;3.08;;
76475;SDS011;65308;50.078;14.854;2023-04-28T12:51:08;7.18;;;3.47;;
76475;SDS011;65308;50.078;14.854;2023-04-28T12:53:35;6.20;;;3.88;;
76475;SDS011;65308;50.078;14.854;2023-04-28T12:56:01;5.18;;;3.28;;
76475;SDS011;65308;50.078;14.854;2023-04-28T12:58:29;5.82;;;3.60;;
76475;SDS011;65308;50.078;14.854;2023-04-28T13:00:56;7.22;;;3.22;;
76475;SDS011;65308;50.078;14.854;2023-04-28T13:03:23;5.57;;;3.83;;
76475;SDS011;65308;50.078;14.854;2023-04-28T13:05:51;5.03;;;3.03;;
76475;SDS011;65308;50.078;14.854;2023-04-28T13:08:20;6.38;;;3.50;;
76475;SDS011;65308;50.078;14.854;2023-04-28T13:10:48;5.30;;;3.38;;
76475;SDS011;65308;50.078;14.854;2023-04-28T13:13:15;7.22;;;3.75;;
76475;SDS011;65308;50.078;14.854;2023-04-28T13:15:43;5.45;;;3.65;;
76475;SDS011;65308;50.078;14.854;2023-04-28T13:18:10;5.88;;;3.50;;
76475;SDS011;65308;50.078;14.854;2023-04-28T13:20:37;5.53;;;3.22;;
76475;SDS011;65308;50.078;14.854;2023-04-28T13:23:13;6.45;;;3.58;;
76475;SDS011;65308;50.078;14.854;2023-04-28T13:25:41;5.38;;;3.45;;
76475;SDS011;65308;50.078;14.854;2023-04-28T13:28:08;4.93;;;3.60;;
76475;SDS011;65308;50.078;14.854;2023-04-28T13:30:54;6.43;;;3.40;;
76475;SDS011;65308;50.078;14.854;2023-04-28T13:33:40;6.20;;;4.05;;
76475;SDS011;65308;50.078;14.854;2023-04-28T13:36:07;6.25;;;3.58;;
76475;SDS011;65308;50.078;14.854;2023-04-28T13:38:34;5.53;;;3.80;;
76475;SDS011;65308;50.078;14.854;2023-04-28T13:41:01;6.28;;;4.13;;
76475;SDS011;65308;50.078;14.854;2023-04-28T13:43:27;15.48;;;4.95;;
76475;SDS011;65308;50.078;14.854;2023-04-28T13:45:56;31.52;;;15.38;;
76475;SDS011;65308;50.078;14.854;2023-04-28T13:48:33;20.50;;;10.40;;
76475;SDS011;65308;50.078;14.854;2023-04-28T13:51:00;70.65;;;38.80;;
76475;SDS011;65308;50.078;14.854;2023-04-28T13:58:37;11.02;;;6.50;;
76475;SDS011;65308;50.078;14.854;2023-04-28T14:01:06;14.18;;;7.43;;
76475;SDS011;65308;50.078;14.854;2023-04-28T14:03:37;9.07;;;6.57;;
76475;SDS011;65308;50.078;14.854;2023-04-28T14:06:12;7.03;;;4.75;;
76475;SDS011;65308;50.078;14.854;2023-04-28T14:08:47;8.50;;;5.20;;
76475;SDS011;65308;50.078;14.854;2023-04-28T14:11:13;7.32;;;5.32;;
76475;SDS011;65308;50.078;14.854;2023-04-28T14:13:40;8.60;;;5.70;;
76475;SDS011;65308;50.078;14.854;2023-04-28T14:38:39;6.20;;;4.20;;
76475;SDS011;65308;50.078;14.854;2023-04-28T14:41:08;6.50;;;4.22;;
76475;SDS011;65308;50.078;14.854;2023-04-28T14:43:46;7.75;;;4.63;;
76475;SDS011;65308;50.078;14.854;2023-04-28T14:46:21;7.13;;;4.40;;
76475;SDS011;65308;50.078;14.854;2023-04-28T14:48:49;7.28;;;4.30;;
76475;SDS011;65308;50.078;14.854;2023-04-28T14:51:20;11.25;;;5.28;;
76475;SDS011;65308;50.078;14.854;2023-04-28T14:53:55;8.43;;;5.35;;
76475;SDS011;65308;50.078;14.854;2023-04-28T14:56:22;9.98;;;5.93;;
76475;SDS011;65308;50.078;14.854;2023-04-28T14:58:49;11.07;;;6.43;;
76475;SDS011;65308;50.078;14.854;2023-04-28T15:01:15;9.68;;;5.45;;
76475;SDS011;65308;50.078;14.854;2023-04-28T15:03:43;10.70;;;7.05;;
76475;SDS011;65308;50.078;14.854;2023-04-28T15:06:14;10.02;;;5.22;;
76475;SDS011;65308;50.078;14.854;2023-04-28T15:08:41;8.20;;;5.40;;
76475;SDS011;65308;50.078;14.854;2023-04-28T15:11:09;8.75;;;5.10;;
76475;SDS011;65308;50.078;14.854;2023-04-28T15:13:36;8.65;;;5.53;;
76475;SDS011;65308;50.078;14.854;2023-04-28T15:16:03;7.03;;;4.82;;
76475;SDS011;65308;50.078;14.854;2023-04-28T15:18:31;8.05;;;5.20;;
76475;SDS011;65308;50.078;14.854;2023-04-28T15:20:58;7.45;;;4.65;;
76475;SDS011;65308;50.078;14.854;2023-04-28T15:23:25;9.50;;;4.70;;
76475;SDS011;65308;50.078;14.854;2023-04-28T15:25:51;8.05;;;4.90;;
76475;SDS011;65308;50.078;14.854;2023-04-28T15:28:20;8.23;;;5.30;;
76475;SDS011;65308;50.078;14.854;2023-04-28T15:30:51;7.20;;;4.80;;
76475;SDS011;65308;50.078;14.854;2023-04-28T15:33:18;7.30;;;5.20;;
76475;SDS011;65308;50.078;14.854;2023-04-28T15:35:47;8.80;;;5.75;;
76475;SDS011;65308;50.078;14.854;2023-04-28T15:38:17;8.95;;;6.00;;
76475;SDS011;65308;50.078;14.854;2023-04-28T15:40:44;7.80;;;5.35;;